• Join FlightAware (Why Join?)
  • Login
  • US Flag 
05:07AM EDT


 

Airport Tracker/Info


-or-


 

Live Flight TrackerFlight Track Log ✈ EJA831 ✈ 07-May-2013 ✈ KIWA - KVNY

Flight Track Log - Related Links

Times and Time Zones

All times are in EDT time to prevent confusion due to time zone crossing. See the EJA831 flight status page for this flight to view local times or setup timezone preferences in your user account.

Time Position Orientation Groundspeed Altitude Reporting Facility
EDT Latitude Longitude Course Direction KTS MPH feet Rate Location/Type
01:50PM 33.3167 -111.6667 23° Northeast 167 192 1,700  Level Phoenix TRACON
01:51PM 33.3500 -111.6500 23° Northeast 211 243 4,600 2,340 Climbing Phoenix TRACON
01:52PM 33.3464 -111.6256 100° East 218 251 5,400 1,500 Climbing Albuquerque Center
01:53PM 33.3850 -111.5789 45° Northeast 232 267 6,900 1,260 Climbing Albuquerque Center
01:54PM 33.4478 -111.5517 20° North 238 274 8,100 2,340 Climbing Albuquerque Center
01:55PM 33.5194 -111.5208 20° North 253 291 11,800 3,420 Climbing Albuquerque Center
01:56PM 33.5833 -111.5742 325° Northwest 298 343 15,200 3,360 Climbing Albuquerque Center
01:57PM 33.6322 -111.6553 306° West 299 344 18,700 2,820 Climbing Albuquerque Center
01:58PM 33.6808 -111.7394 305° West 303 349 21,000 1,440 Climbing Albuquerque Center
01:59PM 33.7519 -111.8603 305° West 356 410 21,700 1,560 Climbing Albuquerque Center
02:00PM 33.8092 -111.9606 304° West 363 418 24,300 2,460 Climbing Albuquerque Center
02:01PM 33.8653 -112.0547 306° West 356 410 26,800 1,800 Climbing Albuquerque Center
02:02PM 33.9214 -112.1500 305° West 348 400 28,000 540 Climbing Albuquerque Center
02:03PM 33.9886 -112.2506 309° West 383 441 28,000  Level Albuquerque Center
02:04PM 34.0883 -112.3208 330° Northwest 408 470 28,000  Level Albuquerque Center
02:05PM 34.1872 -112.3892 330° Northwest 410 472 28,000  Level Albuquerque Center
02:06PM 34.2856 -112.4583 330° Northwest 409 471 28,000  Level Albuquerque Center
02:07PM 34.3844 -112.5278 330° Northwest 409 471 28,000  Level Albuquerque Center
02:08PM 34.4886 -112.6172 325° Northwest 404 465 28,000  Level Albuquerque Center
02:09PM 34.5628 -112.7131 313° West 392 451 28,000  Level Albuquerque Center
02:10PM 34.6408 -112.8033 316° Northwest 391 450 28,000  Level Albuquerque Center
02:11PM 34.7108 -112.8978 312° West 388 447 28,000  Level Albuquerque Center
02:12PM 34.7233 -113.0106 278° West 346 398 28,000  Level Albuquerque Center
02:13PM 34.7272 -113.1464 272° West 338 389 28,000  Level Albuquerque Center
02:14PM 34.7303 -113.2600 272° West 336 387 28,000  Level Albuquerque Center
02:15PM 34.7342 -113.3781 272° West 338 389 28,000  Level Albuquerque Center
02:16PM 34.7383 -113.4906 273° West 342 394 28,000  Level Albuquerque Center
02:17PM 34.7417 -113.6089 272° West 348 400 28,000  Level Albuquerque Center
02:18PM 34.7450 -113.7247 272° West 346 398 28,000  Level Albuquerque Center
02:19PM 34.7478 -113.8411 272° West 345 397 28,000  Level Albuquerque Center
02:20PM 34.7517 -113.9353 273° West 350 403 28,000  Level Los Angeles Center
02:21PM 34.7544 -114.0581 272° West 349 402 28,000  Level Los Angeles Center
02:22PM 34.7594 -114.2017 272° West 353 406 28,000  Level Los Angeles Center
02:23PM 34.7622 -114.3219 272° West 356 410 28,000  Level Los Angeles Center
02:24PM 34.7650 -114.4428 272° West 358 412 28,000  Level Los Angeles Center
02:25PM 34.7675 -114.5639 271° West 358 412 28,000  Level Los Angeles Center
02:26PM 34.7706 -114.6806 272° West 348 400 28,000  Level Los Angeles Center
02:27PM 34.7733 -114.7989 272° West 350 403 28,000  Level Los Angeles Center
02:29PM 34.7758 -114.9444 271° West 356 410 28,000  Level Los Angeles Center
02:30PM 34.7789 -115.0628 272° West 351 404 28,000  Level Los Angeles Center
02:31PM 34.7817 -115.2061 271° West 353 406 28,000  Level Los Angeles Center
02:32PM 34.7831 -115.3264 271° West 354 407 28,000 -360 Level Los Angeles Center
02:33PM 34.7856 -115.4706 271° West 356 410 27,200 -960 Descending Los Angeles Center
02:34PM 34.7878 -115.5997 271° West 342 394 26,000 -1,080 Descending Los Angeles Center
02:35PM 34.7894 -115.7167 271° West 344 396 25,000 -900 Descending Los Angeles Center
02:36PM 34.7903 -115.8108 271° West 348 400 24,200 -540 Descending Los Angeles Center
02:37PM 34.7914 -115.9544 271° West 352 405 24,000 -120 Descending Los Angeles Center
02:38PM 34.7933 -116.0719 271° West 351 404 24,000 -420 Level Los Angeles Center
02:39PM 34.7944 -116.1911 271° West 351 404 23,200 -1,020 Descending Los Angeles Center
02:40PM 34.7964 -116.3378 271° West 361 415 22,000 -600 Descending Los Angeles Center
02:41PM 34.7969 -116.4564 270° West 354 407 22,000  Level Los Angeles Center
02:42PM 34.7872 -116.5742 264° West 350 403 22,000  Level Los Angeles Center
02:43PM 34.7739 -116.6947 262° West 358 412 22,000  Level Los Angeles Center
02:44PM 34.7622 -116.8158 263° West 362 417 22,000  Level Los Angeles Center
02:45PM 34.7500 -116.9378 263° West 363 418 22,000  Level Los Angeles Center
02:46PM 34.7367 -117.0622 263° West 370 426 22,000 -720 Level Los Angeles Center
02:48PM 34.7217 -117.2106 263° West 368 423 20,600 -1,440 Descending Los Angeles Center
02:49PM 34.7094 -117.3303 263° West 359 413 19,100 -1,440 Descending Los Angeles Center
02:50PM 34.6969 -117.4467 263° West 350 403 17,700 -1,440 Descending Los Angeles Center
02:51PM 34.6847 -117.5650 263° West 352 405 16,200 -1,500 Descending Los Angeles Center
02:52PM 34.6722 -117.6803 263° West 349 402 14,700 -1,260 Descending Los Angeles Center
02:53PM 34.6608 -117.7906 263° West 335 386 13,700 -1,020 Descending Los Angeles Center
02:54PM 34.6506 -117.8811 262° West 336 387 12,700 -1,260 Descending Los Angeles Center
02:55PM 34.6389 -117.9936 263° West 337 388 11,200 -1,440 Descending Los Angeles Center
02:56PM 34.6203 -118.1125 259° West 299 344 9,800 -1,260 Descending Los Angeles Center
02:57PM 34.5967 -118.2225 255° West 282 325 8,600 -900 Descending Los Angeles Center
02:58PM 34.5761 -118.3114 254° West 276 318 8,000 -300 Descending Los Angeles Center
02:59PM 34.5569 -118.3983 255° West 270 311 8,000  Level Los Angeles Center
03:00PM 34.5367 -118.4858 254° West 270 311 8,000 -300 Level Los Angeles Center
03:01PM 34.4864 -118.5536 228° Southwest 239 275 7,400 -1,140 Descending Los Angeles Center
03:02PM 34.4239 -118.5344 166° South 228 262 5,700 -1,680 Descending Los Angeles Center
03:03PM 34.3667 -118.5167 166° South 246 283 4,400 -1,320 Descending Southern California TRACON
03:04PM 34.3167 -118.5167 180° South 209 241 3,400 -1,140 Descending Southern California TRACON
03:05PM 34.2667 -118.5000 165° South 168 193 2,200 -1,200 Descending Southern California TRACON
03:06PM 34.2333 -118.5000 180° South 124 143 1,100 -1,140 Descending Southern California TRACON
03:08PM 34.2098 -118.4900 North  Level Estimated
03:15PM 34.2098 -118.4900 North  Level Estimated